Repülésmeteorológia

  • METAR LHSM 260030Z NIL=
  • METAR LHSM 260000Z NIL=
  • METAR LHSM 251545Z 22010KT CAVOK 26/11 Q1010 NOSIG=
  • METAR LHSM 251515Z 22011KT CAVOK 27/12 Q1010 NOSIG=
  • METAR LHSM 251445Z 22009KT CAVOK 27/13 Q1011 NOSIG=

  • TAF LHSM 251115Z 2512/2521 20011KT CAVOK BECMG 2517/2520 22005KT=
  • TAF LHSM 250815Z 2509/2518 18005KT CAVOK BECMG 2509/2512 22010KT
  • TAF LHSM 250515Z 2506/2515 VRB02KT CAVOK
  • TAF LHSM 241115Z 2412/2421 33007KT CAVOK PROB30 TEMPO 2412/2417
  • TAF LHSM 240815Z 2409/2418 32007KT 9999 SCT040 BKN060